Jason Carter

Chefscout - Crystal Palace
3 Apr 2027
Samstag
Verarbeitung

Persönlichkeit

Anpassungsfähigkeit (6) Ehrgeiz (1) Kontroverse (16) Loyalität (10) Druck (1) Professionalität (5) Fairness (3) Temperament (14)

Profil

Trainerstil Demokratisch
Lizenz Kontinentale C
Entschlossenheit 12
Menschenführung 7
Motivation 13
Disziplin 15
Arbeitszufriedenheit
62%
Ermüdung
0%
Rolle Chefscout
Gehalt 16.9K p/W
Vertrag 14.03.2030

Leistung

Verhalten Gut
Trainingseffektivität
35%
Spielerentwicklung
55%
Verletzungsprävention
60%
Taktische Umsetzung
70%

Letzte Ereignisse

Spieler begutachtet jetzt
Nahm an einer Scouting-Besprechung teil jetzt
Empfahl ein Transferziel jetzt
Empfahl ein Transferziel jetzt
Spieler begutachtet jetzt
Spieler begutachtet 7T her
Spieler begutachtet 7T her
Spieler begutachtet 7T her

Aktuell beobachtet

146
Spieler Verein Status Fähigkeit Vertrauen Beobachtet Zuletzt beobachtet Letzte Stimme
Axel Tape Bayer Leverkusen Aktiv 121 / 133 40% 9 02.04.2027 -
Tiago Freitas Benfica Aktiv 104 / 124 40% 8 02.04.2027 -
Samuele di Benedetto Charlton Athletic Aktiv 103 / 121 40% 1 02.04.2027 -
Yasin Özcan Aston Villa Aktiv 111 / 105 40% 3 31.03.2027 -
Matthew Litherland Blackburn Rovers Aktiv 105 / 115 40% 3 31.03.2027 -
Alexis Fretes Libertad Aktiv 107 / 122 40% 4 30.03.2027 -
Ethan Butera Ajax Aktiv 109 / 118 40% 1 30.03.2027 -
Juan Pablo De la Reta Maipú Aktiv 117 / 118 40% 3 28.03.2027 -
Chris Rigg Sunderland Aktiv 128 / 140 40% 8 28.03.2027 -
Kai Andrews Coventry City Aktiv 116 / 130 40% 2 27.03.2027 -
Francisco Chissumba Braga Aktiv 126 / 117 40% 1 27.03.2027 -
Riyad Idrissi Cagliari Aktiv 127 / 128 40% 4 26.03.2027 -
Valentin Atangana Juventus Aktiv 130 / 144 40% 1 26.03.2027 -
Alex Tóth Bournemouth Aktiv 121 / 126 40% 2 25.03.2027 -
Camilo Rey Domenech Boca Juniors Aktiv 106 / 121 40% 1 25.03.2027 -
Enzo Cardozo Almirante Brown Aktiv 115 / 124 40% 1 24.03.2027 -
Thiago Silvero River Plate Aktiv 120 / 110 40% 2 23.03.2027 -
Vanja Dragojević Partizan Aktiv 117 / 123 40% 2 23.03.2027 -
Aune Heggebø West Bromwich Albion Aktiv 126 / 118 40% 2 22.03.2027 -
Lior Kasa Maccabi Haifa Aktiv 105 / 112 40% 3 22.03.2027 -
Luciano Gondou CSKA Moscow Aktiv 127 / 131 40% 5 22.03.2027 -
Gonçalo Oliveira Benfica Aktiv 112 / 105 40% 5 22.03.2027 -
Kane Drummond Oldham Athletic Aktiv 93 / 82 40% 1 22.03.2027 -
Patrick Agyemang Derby County Aktiv 128 / 129 40% 2 20.03.2027 -
Mateo Fernández Angusht Aktiv 81 / 63 40% 1 20.03.2027 -
Ekain Orobengoa Real Sociedad Aktiv 104 / 107 40% 1 20.03.2027 -
Jobe Bellingham RB Leipzig Aktiv 136 / 134 40% 1 16.03.2027 -
Itumeleng Zungu Free State Stars Aktiv 123 / 108 40% 5 15.03.2027 -
Davinchi Getafe Aktiv 119 / 117 40% 6 15.03.2027 -
Lennon Miller Udinese Aktiv 126 / 143 40% 2 15.03.2027 -
Cemran Dansin Orlando Pirates Aktiv 116 / 130 40% 9 14.03.2027 -
Adam Aznou Everton Aktiv 116 / 138 40% 3 14.03.2027 -
Obed Vargas Atlético Madrid Aktiv 122 / 123 40% 3 13.03.2027 -
Dylan Lawlor Cardiff City Aktiv 120 / 121 40% 5 12.03.2027 -
Juan David Arizala Udinese Aktiv 119 / 129 40% 3 12.03.2027 -
Honest Ahanor Atalanta Aktiv 124 / 124 40% 4 11.03.2027 -
Jens Hjertø-Dahl Hull City Aktiv 112 / 139 40% 2 11.03.2027 -
Jofre Torrents Ajax Aktiv 114 / 139 40% 3 10.03.2027 -
Elias Baum Eintracht Frankfurt Aktiv 128 / 136 40% 3 10.03.2027 -
Jean-Luc Morin Tours Aktiv 149 / 137 40% 8 09.03.2027 -
Gonzalo Plata Dinamo Moscow Aktiv 126 / 140 40% 1 09.03.2027 -
Tyreece Campbell Charlton Athletic Aktiv 122 / 117 40% 1 09.03.2027 -
Dmitry Pestryakov Dinamo Moscow Aktiv 109 / 113 40% 3 07.03.2027 -
Luke Baartman Chippa United Aktiv 94 / 104 40% 1 07.03.2027 -
Daniel Banjaqui Benfica Aktiv 117 / 126 40% 4 05.03.2027 -
Morten Frendrup Genoa Aktiv 144 / 136 40% 1 05.03.2027 -
Joe Willock Newcastle United Aktiv 135 / 142 40% 1 05.03.2027 -
Danyil Alefirenko Chornomorets Aktiv 107 / 98 40% 3 04.03.2027 -
Harrison Armstrong Everton Aktiv 122 / 144 40% 2 04.03.2027 -
Hlompho Modiba Black Aces Aktiv 80 / 87 40% 1 04.03.2027 -
Tyrese Campbell Sheffield United Aktiv 124 / 117 40% 2 03.03.2027 -
Will Lankshear Middlesbrough Aktiv 118 / 115 40% 9 03.03.2027 -
Konan N'Dri Lecce Aktiv 130 / 119 40% 2 03.03.2027 -
Christ Inao Oulaï Fiorentina Aktiv 132 / 148 40% 2 28.02.2027 -
Sabil Hansen Randers Aktiv 96 / 106 40% 3 27.02.2027 -
Ezra Mayers West Ham United Aktiv 112 / 127 40% 2 27.02.2027 -
Adnan Courtois KV Oostende Aktiv 121 / 139 40% 1 25.02.2027 -
Leonardo Barroso Chicago Fire Aktiv 121 / 106 40% 1 25.02.2027 -
Diogo Sousa RC Strasbourg Aktiv 121 / 113 40% 1 24.02.2027 -
Salvador Blopá Sporting CP Aktiv 112 / 121 40% 1 24.02.2027 -
Luther Zwane Platinum Stars Aktiv 98 / 97 40% 2 22.02.2027 -
Solly Khunyedi Bloemfontein Celtic Aktiv 113 / 88 40% 4 22.02.2027 -
Bohdan Budko AZ Aktiv 109 / 114 40% 1 22.02.2027 -
Stephen Amankona Aduana Stars Aktiv 92 / 84 40% 1 20.02.2027 -
Dom Ballard Leyton Orient Aktiv 117 / 126 40% 1 20.02.2027 -
Žan Vipotnik Swansea City Aktiv 122 / 120 40% 16 17.02.2027 -
Mattia Mannini Juve Stabia Aktiv 106 / 124 40% 2 17.02.2027 -
Morgan Whittaker Middlesbrough Aktiv 126 / 127 40% 1 17.02.2027 -
Simphiwe Selepe Orlando Pirates Aktiv 120 / 124 40% 5 12.02.2027 -
Roger Hinojo Espanyol Aktiv 109 / 112 40% 1 12.02.2027 -
Harry Leonard Peterborough United Aktiv 102 / 102 40% 1 12.02.2027 -
Miguel Figueiredo Benfica Aktiv 108 / 128 40% 1 10.02.2027 -
Malik Mothersille Stockport County Aktiv 111 / 118 40% 1 10.02.2027 -
Wandile Duba Bidvest Wits Aktiv 96 / 105 40% 1 09.02.2027 -
Josh Coburn Millwall Aktiv 111 / 118 40% 1 09.02.2027 -
Lucas Jetten Cambuur Aktiv 112 / 113 40% 1 06.02.2027 -
Rabby Nzingoula West Bromwich Albion Aktiv 123 / 123 40% 2 03.02.2027 -
Ollie Scarles West Ham United Aktiv 130 / 124 40% 5 01.02.2027 -
Dayann Methalie Sunderland Aktiv 122 / 142 40% 3 31.01.2027 -
Saël Kumbedi VfL Wolfsburg Aktiv 130 / 129 40% 1 28.01.2027 -
Leandrinho Sharjah Aktiv 99 / 108 40% 2 27.01.2027 -
Vinícius Lira Santos Aktiv 124 / 140 40% 2 20.01.2027 -
Matvey Kislyak CSKA Moscow Aktiv 138 / 146 40% 1 13.01.2027 -
Ignacio Perruzzi San Lorenzo Aktiv 124 / 110 40% 1 11.01.2027 -
Patson Daka Leicester City Bericht bereit 131 / 136 69% 1 07.01.2027 -
Tom Cannon Sheffield United Aktiv 137 / 132 40% 22 02.01.2027 -
Mao Hosoya Corinthians Aktiv 134 / 135 67% 1 01.01.2027 Befürworten
Thiago Almada River Plate Abgelehnt 145 / 146 69% 1 01.01.2027 Ablehnen
Marvin Keller Young Boys Verloren 136 / 137 67% 1 01.01.2027 Befürworten
Akor Adams Venezia Aktiv 139 / 141 40% 1 31.12.2026 -
Exequiel Zeballos Boca Juniors Aktiv 125 / 150 40% 18 30.12.2026 -
Derry Scherhant SC Freiburg Aktiv 123 / 120 40% 13 29.12.2026 -
Igor Serrote Al Jazira Aktiv 104 / 110 40% 1 29.12.2026 -
Jair Nottingham Forest Aktiv 124 / 126 40% 1 29.12.2026 -
David Romero Parma Aktiv 128 / 117 40% 2 27.12.2026 -
Felipe Augusto Zenit Aktiv 122 / 126 40% 14 24.12.2026 -
Tyrese Shade Burton Albion Aktiv 103 / 94 40% 1 24.12.2026 -
Pablo Felipe West Ham United Aktiv 142 / 133 40% 4 22.12.2026 -
Alan Velasco Boca Juniors Aktiv 117 / 121 40% 17 21.12.2026 -
Richard Koné Queens Park Rangers Aktiv 128 / 118 40% 2 20.12.2026 -
Brayan Gil Baltika Aktiv 113 / 111 40% 2 20.12.2026 -
Miro Dinamo Makhachkala Aktiv 114 / 111 40% 1 20.12.2026 -
Santiago Mina VfL Wolfsburg Aktiv 137 / 152 40% 8 18.12.2026 -
Talles Magno New York City Aktiv 142 / 113 40% 13 17.12.2026 -
Rumarn Burrell Queens Park Rangers Aktiv 131 / 127 40% 3 14.12.2026 -
Maurits Kjærgaard Red Bull Salzburg Aktiv 126 / 130 40% 13 12.12.2026 -
Josh Sargent Toronto FC Aktiv 138 / 138 40% 2 12.12.2026 -
Luis Vázquez Birmingham Aktiv 129 / 139 40% 1 12.12.2026 -
Kévin Denkey FC Cincinnati Aktiv 140 / 129 40% 2 10.12.2026 -
Tadeo Allende Inter Miami CF Aktiv 121 / 106 40% 2 08.12.2026 -
Indiana Vassilev Philadelphia Union Aktiv 119 / 103 40% 2 08.12.2026 -
Tamerlan Musaev CSKA Moscow Aktiv 130 / 126 40% 1 08.12.2026 -
Marezi Portsmouth Aktiv 114 / 113 40% 1 03.12.2026 -
Alexander Díaz Deportivo Riestra Aktiv 112 / 130 40% 2 02.12.2026 -
Kevin Kelsy Portland Timbers Aktiv 118 / 106 40% 1 02.12.2026 -
Tomás Chancalay Minnesota United FC Aktiv 116 / 118 40% 1 02.12.2026 -
Jeong Sang-Bin St. Louis CITY SC Aktiv 118 / 102 40% 1 27.11.2026 -
Dion Beljo Dinamo Zagreb Aktiv 130 / 122 40% 14 25.11.2026 -
Agustín Anello Tottenham Aktiv 117 / 133 40% 1 21.11.2026 -
Mohamed-Ali Cho Hull City Aktiv 138 / 134 40% 9 20.11.2026 -
João Muniz Sporting CP Aktiv 121 / 134 40% 1 11.11.2026 -
Victor Olatunji Real Salt Lake Aktiv 116 / 128 40% 1 06.11.2026 -
Musa Barrow Al-Khaleej Aktiv 137 / 142 40% 1 02.11.2026 -
Rayan Bournemouth Aktiv 132 / 152 40% 6 23.10.2026 -
Aral Şimşir Trabzonspor Aktiv 142 / 116 40% 7 21.10.2026 -
Nicolò Tresoldi Club Brugge Aktiv 133 / 123 40% 7 16.10.2026 -
Asahi Uenaka Gamba Osaka Aktiv 120 / 106 40% 3 13.10.2026 -
Rafiu Durosinmi Racing Genk Aktiv 131 / 139 40% 9 11.10.2026 -
Amir Mohammad Razzaghinia Esteghlal Aktiv 97 / 121 40% 1 09.10.2026 -
Michy Fellaini KV Oostende Aktiv 130 / 135 40% 5 25.09.2026 -
Tobias Bech AGF Aktiv 115 / 126 40% 4 06.09.2026 -
Roberto Fernández Braga Aktiv 140 / 138 40% 2 02.09.2026 -
Armando Broja Burnley Aktiv 131 / 128 40% 2 01.09.2026 -
Louis Munteanu DC United Aktiv 116 / 120 40% 1 31.08.2026 -
Thierno Barry Everton Aktiv 131 / 143 40% 1 31.08.2026 -
Efraín Álvarez Guadalajara Aktiv 117 / 127 40% 2 24.08.2026 -
Pau Víctor Braga Aktiv 142 / 141 40% 2 22.08.2026 -
Mbekezeli Mbokazi Chicago Fire Aktiv 116 / 134 40% 1 22.08.2026 -
Rafael Luís Benfica Aktiv 115 / 132 40% 1 21.08.2026 -
Nacer Tielemans Mouscron Aktiv 135 / 141 40% 1 21.08.2026 -
Manfred Ugalde Spartak Moscow Aktiv 118 / 132 40% 1 18.08.2026 -
Ricardo Pepi PSV Aktiv 143 / 153 40% 1 18.08.2026 -
Kacper Urbański Gornik Zabrze Aktiv 109 / 125 40% 1 18.08.2026 -
Craig Forsyth Derby County Aktiv 112 / 113 69% 1 17.08.2026 Befürworten
Karim Konaté Red Bull Salzburg Aktiv 131 / 134 40% 1 14.08.2026 -
Stefanos Tzimas Brighton Aktiv 123 / 143 40% 1 02.08.2026 -